sensor_id;sensor_type;location;lat;lon;timestamp;P1;durP1;ratioP1;P2;durP2;ratioP2
18738;SDS011;9498;51.862;19.460;2024-02-28T00:00:41;114.97;;;52.97;;
18738;SDS011;9498;51.862;19.460;2024-02-28T00:03:09;108.83;;;51.50;;
18738;SDS011;9498;51.862;19.460;2024-02-28T00:05:39;125.43;;;62.53;;
18738;SDS011;9498;51.862;19.460;2024-02-28T00:08:10;107.83;;;53.13;;
18738;SDS011;9498;51.862;19.460;2024-02-28T00:10:38;112.97;;;50.20;;
18738;SDS011;9498;51.862;19.460;2024-02-28T00:13:07;104.33;;;50.53;;
18738;SDS011;9498;51.862;19.460;2024-02-28T00:15:35;108.20;;;50.83;;
18738;SDS011;9498;51.862;19.460;2024-02-28T00:18:05;103.37;;;48.23;;
18738;SDS011;9498;51.862;19.460;2024-02-28T00:20:34;101.97;;;46.50;;
18738;SDS011;9498;51.862;19.460;2024-02-28T00:23:02;100.07;;;46.23;;
18738;SDS011;9498;51.862;19.460;2024-02-28T00:25:33;102.27;;;46.80;;
18738;SDS011;9498;51.862;19.460;2024-02-28T00:28:02;100.47;;;45.53;;
18738;SDS011;9498;51.862;19.460;2024-02-28T00:30:30;101.83;;;45.77;;
18738;SDS011;9498;51.862;19.460;2024-02-28T00:32:59;96.50;;;45.43;;
18738;SDS011;9498;51.862;19.460;2024-02-28T00:35:28;97.47;;;46.67;;
18738;SDS011;9498;51.862;19.460;2024-02-28T00:38:00;97.53;;;46.70;;
18738;SDS011;9498;51.862;19.460;2024-02-28T00:40:28;112.00;;;55.20;;
18738;SDS011;9498;51.862;19.460;2024-02-28T00:42:59;108.03;;;50.90;;
18738;SDS011;9498;51.862;19.460;2024-02-28T00:45:28;99.43;;;47.00;;
18738;SDS011;9498;51.862;19.460;2024-02-28T00:47:56;104.43;;;49.37;;
18738;SDS011;9498;51.862;19.460;2024-02-28T00:50:25;102.90;;;47.63;;
18738;SDS011;9498;51.862;19.460;2024-02-28T00:52:53;104.80;;;47.03;;
18738;SDS011;9498;51.862;19.460;2024-02-28T00:55:21;100.97;;;46.93;;
18738;SDS011;9498;51.862;19.460;2024-02-28T00:57:50;110.63;;;49.70;;
18738;SDS011;9498;51.862;19.460;2024-02-28T01:00:21;108.90;;;48.80;;
18738;SDS011;9498;51.862;19.460;2024-02-28T01:02:49;107.00;;;50.23;;
18738;SDS011;9498;51.862;19.460;2024-02-28T01:05:18;112.57;;;49.23;;
18738;SDS011;9498;51.862;19.460;2024-02-28T01:07:46;114.47;;;50.43;;
18738;SDS011;9498;51.862;19.460;2024-02-28T01:10:15;96.33;;;46.63;;
18738;SDS011;9498;51.862;19.460;2024-02-28T01:12:47;95.10;;;44.80;;
18738;SDS011;9498;51.862;19.460;2024-02-28T01:15:15;90.43;;;43.70;;
18738;SDS011;9498;51.862;19.460;2024-02-28T01:17:46;103.82;;;50.60;;
18738;SDS011;9498;51.862;19.460;2024-02-28T01:20:15;110.70;;;49.93;;
18738;SDS011;9498;51.862;19.460;2024-02-28T01:22:43;107.43;;;49.53;;
18738;SDS011;9498;51.862;19.460;2024-02-28T01:25:11;114.00;;;51.10;;
18738;SDS011;9498;51.862;19.460;2024-02-28T01:27:40;114.40;;;52.50;;
18738;SDS011;9498;51.862;19.460;2024-02-28T01:30:09;119.37;;;51.93;;
18738;SDS011;9498;51.862;19.460;2024-02-28T01:32:37;143.43;;;66.80;;
18738;SDS011;9498;51.862;19.460;2024-02-28T01:35:10;132.43;;;57.50;;
18738;SDS011;9498;51.862;19.460;2024-02-28T01:37:39;115.20;;;53.93;;
18738;SDS011;9498;51.862;19.460;2024-02-28T01:40:08;119.73;;;54.43;;
18738;SDS011;9498;51.862;19.460;2024-02-28T01:42:36;125.07;;;55.80;;
18738;SDS011;9498;51.862;19.460;2024-02-28T01:45:05;117.30;;;52.90;;
18738;SDS011;9498;51.862;19.460;2024-02-28T01:47:34;128.00;;;57.20;;
18738;SDS011;9498;51.862;19.460;2024-02-28T01:50:04;128.17;;;56.10;;
18738;SDS011;9498;51.862;19.460;2024-02-28T01:52:35;127.77;;;55.37;;
18738;SDS011;9498;51.862;19.460;2024-02-28T01:55:05;119.73;;;55.77;;
18738;SDS011;9498;51.862;19.460;2024-02-28T01:57:34;125.17;;;55.57;;
18738;SDS011;9498;51.862;19.460;2024-02-28T02:00:05;129.57;;;54.53;;
18738;SDS011;9498;51.862;19.460;2024-02-28T02:02:35;114.53;;;53.20;;
18738;SDS011;9498;51.862;19.460;2024-02-28T02:05:04;115.27;;;52.67;;
18738;SDS011;9498;51.862;19.460;2024-02-28T02:07:35;128.07;;;58.90;;
18738;SDS011;9498;51.862;19.460;2024-02-28T02:10:05;118.70;;;53.87;;
18738;SDS011;9498;51.862;19.460;2024-02-28T02:12:36;122.63;;;54.23;;
18738;SDS011;9498;51.862;19.460;2024-02-28T02:15:05;123.30;;;54.13;;
18738;SDS011;9498;51.862;19.460;2024-02-28T02:17:33;112.60;;;51.87;;
18738;SDS011;9498;51.862;19.460;2024-02-28T02:20:02;107.57;;;51.70;;
18738;SDS011;9498;51.862;19.460;2024-02-28T02:22:35;127.47;;;56.37;;
18738;SDS011;9498;51.862;19.460;2024-02-28T02:25:05;117.77;;;52.93;;
18738;SDS011;9498;51.862;19.460;2024-02-28T02:27:33;118.33;;;53.27;;
18738;SDS011;9498;51.862;19.460;2024-02-28T02:30:02;110.57;;;52.07;;
18738;SDS011;9498;51.862;19.460;2024-02-28T02:32:30;117.93;;;53.90;;
18738;SDS011;9498;51.862;19.460;2024-02-28T02:34:59;122.18;;;60.30;;
18738;SDS011;9498;51.862;19.460;2024-02-28T02:37:27;119.77;;;55.07;;
18738;SDS011;9498;51.862;19.460;2024-02-28T02:39:58;108.03;;;52.87;;
18738;SDS011;9498;51.862;19.460;2024-02-28T02:42:27;110.10;;;52.40;;
18738;SDS011;9498;51.862;19.460;2024-02-28T02:44:56;111.57;;;50.73;;
18738;SDS011;9498;51.862;19.460;2024-02-28T02:47:26;112.73;;;50.67;;
18738;SDS011;9498;51.862;19.460;2024-02-28T02:49:56;102.00;;;49.17;;
18738;SDS011;9498;51.862;19.460;2024-02-28T02:52:25;102.73;;;49.60;;
18738;SDS011;9498;51.862;19.460;2024-02-28T02:54:53;97.33;;;47.87;;
18738;SDS011;9498;51.862;19.460;2024-02-28T02:57:24;110.67;;;47.47;;
18738;SDS011;9498;51.862;19.460;2024-02-28T02:59:56;105.63;;;49.30;;
18738;SDS011;9498;51.862;19.460;2024-02-28T03:02:24;108.43;;;49.30;;
18738;SDS011;9498;51.862;19.460;2024-02-28T03:04:52;97.87;;;46.80;;
18738;SDS011;9498;51.862;19.460;2024-02-28T03:07:21;94.37;;;45.30;;
18738;SDS011;9498;51.862;19.460;2024-02-28T03:09:49;90.37;;;43.57;;
18738;SDS011;9498;51.862;19.460;2024-02-28T03:12:18;91.93;;;44.70;;
18738;SDS011;9498;51.862;19.460;2024-02-28T03:14:49;125.80;;;48.97;;
18738;SDS011;9498;51.862;19.460;2024-02-28T03:17:19;107.23;;;48.07;;
18738;SDS011;9498;51.862;19.460;2024-02-28T03:19:52;106.63;;;49.67;;
18738;SDS011;9498;51.862;19.460;2024-02-28T03:22:20;131.43;;;48.17;;
18738;SDS011;9498;51.862;19.460;2024-02-28T03:24:54;99.73;;;48.87;;
18738;SDS011;9498;51.862;19.460;2024-02-28T03:27:22;100.70;;;47.90;;
18738;SDS011;9498;51.862;19.460;2024-02-28T03:29:54;103.70;;;46.70;;
18738;SDS011;9498;51.862;19.460;2024-02-28T03:32:22;100.10;;;46.47;;
18738;SDS011;9498;51.862;19.460;2024-02-28T03:34:51;92.93;;;45.87;;
18738;SDS011;9498;51.862;19.460;2024-02-28T03:37:19;97.30;;;45.53;;
18738;SDS011;9498;51.862;19.460;2024-02-28T03:39:48;95.20;;;46.77;;
18738;SDS011;9498;51.862;19.460;2024-02-28T03:42:16;100.00;;;47.47;;
18738;SDS011;9498;51.862;19.460;2024-02-28T03:44:44;122.45;;;57.30;;
18738;SDS011;9498;51.862;19.460;2024-02-28T03:47:16;95.37;;;46.97;;
18738;SDS011;9498;51.862;19.460;2024-02-28T03:49:44;125.30;;;43.57;;
18738;SDS011;9498;51.862;19.460;2024-02-28T03:52:14;96.73;;;43.10;;
18738;SDS011;9498;51.862;19.460;2024-02-28T03:54:43;99.97;;;44.57;;
18738;SDS011;9498;51.862;19.460;2024-02-28T03:57:11;103.27;;;44.40;;
18738;SDS011;9498;51.862;19.460;2024-02-28T03:59:40;106.90;;;44.27;;
18738;SDS011;9498;51.862;19.460;2024-02-28T04:02:09;127.23;;;48.57;;
18738;SDS011;9498;51.862;19.460;2024-02-28T04:04:44;86.83;;;43.70;;
18738;SDS011;9498;51.862;19.460;2024-02-28T04:07:14;91.93;;;43.77;;
18738;SDS011;9498;51.862;19.460;2024-02-28T04:09:43;112.80;;;43.93;;
18738;SDS011;9498;51.862;19.460;2024-02-28T04:12:13;92.40;;;44.67;;
18738;SDS011;9498;51.862;19.460;2024-02-28T04:14:42;99.33;;;42.57;;
18738;SDS011;9498;51.862;19.460;2024-02-28T04:17:10;91.83;;;41.47;;
18738;SDS011;9498;51.862;19.460;2024-02-28T04:19:41;92.83;;;42.27;;
18738;SDS011;9498;51.862;19.460;2024-02-28T04:22:10;89.77;;;42.50;;
18738;SDS011;9498;51.862;19.460;2024-02-28T04:24:38;124.83;;;44.90;;
18738;SDS011;9498;51.862;19.460;2024-02-28T04:27:07;98.13;;;43.77;;
18738;SDS011;9498;51.862;19.460;2024-02-28T04:29:37;90.53;;;43.27;;
18738;SDS011;9498;51.862;19.460;2024-02-28T04:32:05;94.83;;;42.10;;
18738;SDS011;9498;51.862;19.460;2024-02-28T04:34:35;96.57;;;43.53;;
18738;SDS011;9498;51.862;19.460;2024-02-28T04:37:07;93.93;;;41.00;;
18738;SDS011;9498;51.862;19.460;2024-02-28T04:39:35;95.47;;;44.75;;
18738;SDS011;9498;51.862;19.460;2024-02-28T04:42:06;93.67;;;42.50;;
18738;SDS011;9498;51.862;19.460;2024-02-28T04:44:34;82.47;;;40.23;;
18738;SDS011;9498;51.862;19.460;2024-02-28T04:47:03;89.07;;;42.00;;
18738;SDS011;9498;51.862;19.460;2024-02-28T04:49:36;84.73;;;40.40;;
18738;SDS011;9498;51.862;19.460;2024-02-28T04:52:07;86.60;;;40.43;;
18738;SDS011;9498;51.862;19.460;2024-02-28T04:54:35;83.37;;;39.43;;
18738;SDS011;9498;51.862;19.460;2024-02-28T04:57:04;82.23;;;38.53;;
18738;SDS011;9498;51.862;19.460;2024-02-28T04:59:32;78.40;;;39.20;;
18738;SDS011;9498;51.862;19.460;2024-02-28T05:02:01;82.03;;;39.50;;
18738;SDS011;9498;51.862;19.460;2024-02-28T05:04:30;91.17;;;42.70;;
18738;SDS011;9498;51.862;19.460;2024-02-28T05:06:59;96.33;;;42.67;;
18738;SDS011;9498;51.862;19.460;2024-02-28T05:09:30;108.80;;;41.20;;
18738;SDS011;9498;51.862;19.460;2024-02-28T05:11:59;88.57;;;41.27;;
18738;SDS011;9498;51.862;19.460;2024-02-28T05:14:27;91.43;;;41.20;;
18738;SDS011;9498;51.862;19.460;2024-02-28T05:16:57;84.43;;;39.20;;
18738;SDS011;9498;51.862;19.460;2024-02-28T05:19:25;78.70;;;38.57;;
18738;SDS011;9498;51.862;19.460;2024-02-28T05:21:54;78.27;;;37.10;;
18738;SDS011;9498;51.862;19.460;2024-02-28T05:24:22;84.10;;;38.37;;
18738;SDS011;9498;51.862;19.460;2024-02-28T05:26:53;82.60;;;39.50;;
18738;SDS011;9498;51.862;19.460;2024-02-28T05:29:22;84.93;;;38.70;;
18738;SDS011;9498;51.862;19.460;2024-02-28T05:31:51;88.83;;;40.73;;
18738;SDS011;9498;51.862;19.460;2024-02-28T05:34:20;87.20;;;41.47;;
18738;SDS011;9498;51.862;19.460;2024-02-28T05:36:48;97.78;;;50.60;;
18738;SDS011;9498;51.862;19.460;2024-02-28T05:39:44;80.30;;;39.70;;
18738;SDS011;9498;51.862;19.460;2024-02-28T05:42:15;83.00;;;39.90;;
18738;SDS011;9498;51.862;19.460;2024-02-28T05:44:47;84.97;;;40.47;;
18738;SDS011;9498;51.862;19.460;2024-02-28T05:47:16;85.73;;;39.30;;
18738;SDS011;9498;51.862;19.460;2024-02-28T05:49:44;87.47;;;39.77;;
18738;SDS011;9498;51.862;19.460;2024-02-28T05:52:25;87.93;;;40.93;;
18738;SDS011;9498;51.862;19.460;2024-02-28T05:54:57;89.10;;;41.87;;
18738;SDS011;9498;51.862;19.460;2024-02-28T06:03:20;86.93;;;41.30;;
18738;SDS011;9498;51.862;19.460;2024-02-28T06:05:49;83.70;;;40.00;;
18738;SDS011;9498;51.862;19.460;2024-02-28T06:08:19;86.37;;;39.73;;
18738;SDS011;9498;51.862;19.460;2024-02-28T06:11:00;85.00;;;39.63;;
18738;SDS011;9498;51.862;19.460;2024-02-28T06:13:28;82.77;;;40.17;;
18738;SDS011;9498;51.862;19.460;2024-02-28T06:15:57;79.27;;;39.33;;
18738;SDS011;9498;51.862;19.460;2024-02-28T06:18:28;83.53;;;39.13;;
18738;SDS011;9498;51.862;19.460;2024-02-28T06:20:58;95.50;;;44.07;;
18738;SDS011;9498;51.862;19.460;2024-02-28T06:23:27;96.30;;;43.87;;
18738;SDS011;9498;51.862;19.460;2024-02-28T06:25:58;100.13;;;45.50;;
18738;SDS011;9498;51.862;19.460;2024-02-28T06:28:27;99.47;;;45.03;;
18738;SDS011;9498;51.862;19.460;2024-02-28T06:30:55;93.43;;;44.37;;
18738;SDS011;9498;51.862;19.460;2024-02-28T06:33:23;107.27;;;48.40;;
18738;SDS011;9498;51.862;19.460;2024-02-28T06:35:54;113.83;;;49.07;;
18738;SDS011;9498;51.862;19.460;2024-02-28T06:38:23;130.87;;;53.60;;
18738;SDS011;9498;51.862;19.460;2024-02-28T06:40:52;127.77;;;52.77;;
18738;SDS011;9498;51.862;19.460;2024-02-28T06:43:20;133.53;;;53.07;;
18738;SDS011;9498;51.862;19.460;2024-02-28T06:46:16;128.67;;;52.83;;
18738;SDS011;9498;51.862;19.460;2024-02-28T06:54:09;126.40;;;50.83;;
18738;SDS011;9498;51.862;19.460;2024-02-28T06:56:38;121.60;;;49.57;;
18738;SDS011;9498;51.862;19.460;2024-02-28T06:59:06;120.37;;;50.60;;
18738;SDS011;9498;51.862;19.460;2024-02-28T07:01:35;112.37;;;49.93;;
18738;SDS011;9498;51.862;19.460;2024-02-28T07:04:04;113.30;;;47.70;;
18738;SDS011;9498;51.862;19.460;2024-02-28T07:06:32;117.33;;;48.97;;
18738;SDS011;9498;51.862;19.460;2024-02-28T07:09:01;109.83;;;47.77;;
18738;SDS011;9498;51.862;19.460;2024-02-28T07:11:32;114.50;;;48.17;;
18738;SDS011;9498;51.862;19.460;2024-02-28T07:14:01;102.33;;;45.50;;
18738;SDS011;9498;51.862;19.460;2024-02-28T07:16:29;108.00;;;46.57;;
18738;SDS011;9498;51.862;19.460;2024-02-28T07:18:59;101.97;;;44.60;;
18738;SDS011;9498;51.862;19.460;2024-02-28T07:21:28;99.17;;;45.33;;
18738;SDS011;9498;51.862;19.460;2024-02-28T07:23:57;97.33;;;45.70;;
18738;SDS011;9498;51.862;19.460;2024-02-28T07:30:21;93.40;;;43.57;;
18738;SDS011;9498;51.862;19.460;2024-02-28T07:33:07;100.70;;;44.60;;
18738;SDS011;9498;51.862;19.460;2024-02-28T07:43:46;89.50;;;42.13;;
18738;SDS011;9498;51.862;19.460;2024-02-28T07:47:01;96.53;;;45.03;;
18738;SDS011;9498;51.862;19.460;2024-02-28T07:51:10;95.63;;;43.60;;
18738;SDS011;9498;51.862;19.460;2024-02-28T07:53:38;91.90;;;43.17;;
18738;SDS011;9498;51.862;19.460;2024-02-28T07:56:07;94.67;;;44.53;;
18738;SDS011;9498;51.862;19.460;2024-02-28T07:58:45;94.53;;;43.87;;
18738;SDS011;9498;51.862;19.460;2024-02-28T08:01:22;93.63;;;43.67;;
18738;SDS011;9498;51.862;19.460;2024-02-28T08:03:57;96.80;;;44.27;;
18738;SDS011;9498;51.862;19.460;2024-02-28T08:06:25;91.03;;;43.10;;
18738;SDS011;9498;51.862;19.460;2024-02-28T08:08:54;89.70;;;42.57;;
18738;SDS011;9498;51.862;19.460;2024-02-28T08:11:23;93.53;;;43.83;;
18738;SDS011;9498;51.862;19.460;2024-02-28T08:13:51;95.53;;;43.67;;
18738;SDS011;9498;51.862;19.460;2024-02-28T08:16:22;92.93;;;44.03;;
18738;SDS011;9498;51.862;19.460;2024-02-28T08:18:50;94.07;;;45.53;;
18738;SDS011;9498;51.862;19.460;2024-02-28T08:21:21;92.27;;;43.30;;
18738;SDS011;9498;51.862;19.460;2024-02-28T08:23:49;93.13;;;44.17;;
18738;SDS011;9498;51.862;19.460;2024-02-28T08:26:18;93.30;;;43.90;;
18738;SDS011;9498;51.862;19.460;2024-02-28T08:28:46;94.83;;;43.90;;
18738;SDS011;9498;51.862;19.460;2024-02-28T08:31:15;90.23;;;43.03;;
18738;SDS011;9498;51.862;19.460;2024-02-28T08:33:43;96.50;;;47.03;;
18738;SDS011;9498;51.862;19.460;2024-02-28T08:36:12;104.60;;;53.13;;
18738;SDS011;9498;51.862;19.460;2024-02-28T08:38:43;98.07;;;46.10;;
18738;SDS011;9498;51.862;19.460;2024-02-28T08:41:12;97.67;;;45.27;;
18738;SDS011;9498;51.862;19.460;2024-02-28T08:43:42;92.67;;;42.63;;
18738;SDS011;9498;51.862;19.460;2024-02-28T08:46:13;86.33;;;40.30;;
18738;SDS011;9498;51.862;19.460;2024-02-28T08:48:42;94.87;;;43.27;;
18738;SDS011;9498;51.862;19.460;2024-02-28T08:51:11;92.70;;;41.30;;
18738;SDS011;9498;51.862;19.460;2024-02-28T08:53:41;86.07;;;40.73;;
18738;SDS011;9498;51.862;19.460;2024-02-28T08:56:13;85.03;;;39.00;;
18738;SDS011;9498;51.862;19.460;2024-02-28T08:58:42;84.77;;;40.83;;
18738;SDS011;9498;51.862;19.460;2024-02-28T09:01:13;84.50;;;40.60;;
18738;SDS011;9498;51.862;19.460;2024-02-28T09:03:41;81.87;;;38.53;;
18738;SDS011;9498;51.862;19.460;2024-02-28T09:06:10;85.30;;;39.40;;
18738;SDS011;9498;51.862;19.460;2024-02-28T09:08:38;79.33;;;36.20;;
18738;SDS011;9498;51.862;19.460;2024-02-28T09:11:07;74.13;;;35.60;;
18738;SDS011;9498;51.862;19.460;2024-02-28T09:13:38;81.50;;;37.30;;
18738;SDS011;9498;51.862;19.460;2024-02-28T09:16:06;67.63;;;33.00;;
18738;SDS011;9498;51.862;19.460;2024-02-28T09:18:35;71.53;;;35.10;;
18738;SDS011;9498;51.862;19.460;2024-02-28T09:21:03;74.03;;;34.00;;
18738;SDS011;9498;51.862;19.460;2024-02-28T09:23:32;67.03;;;34.00;;
18738;SDS011;9498;51.862;19.460;2024-02-28T09:26:02;68.00;;;32.63;;
18738;SDS011;9498;51.862;19.460;2024-02-28T09:28:31;69.53;;;32.57;;
18738;SDS011;9498;51.862;19.460;2024-02-28T09:31:02;72.50;;;32.20;;
18738;SDS011;9498;51.862;19.460;2024-02-28T09:33:30;72.90;;;34.23;;
18738;SDS011;9498;51.862;19.460;2024-02-28T09:35:59;65.43;;;32.30;;
18738;SDS011;9498;51.862;19.460;2024-02-28T09:38:29;69.10;;;32.37;;
18738;SDS011;9498;51.862;19.460;2024-02-28T09:40:58;66.13;;;31.60;;
18738;SDS011;9498;51.862;19.460;2024-02-28T09:43:28;65.83;;;32.10;;
18738;SDS011;9498;51.862;19.460;2024-02-28T09:45:58;69.80;;;32.97;;
18738;SDS011;9498;51.862;19.460;2024-02-28T09:48:30;68.60;;;32.67;;
18738;SDS011;9498;51.862;19.460;2024-02-28T09:50:59;68.37;;;30.87;;
18738;SDS011;9498;51.862;19.460;2024-02-28T09:53:28;61.83;;;29.87;;
18738;SDS011;9498;51.862;19.460;2024-02-28T09:55:59;61.70;;;30.00;;
18738;SDS011;9498;51.862;19.460;2024-02-28T09:58:27;57.03;;;27.97;;
18738;SDS011;9498;51.862;19.460;2024-02-28T10:00:56;51.60;;;26.73;;
18738;SDS011;9498;51.862;19.460;2024-02-28T10:03:31;55.70;;;28.38;;
18738;SDS011;9498;51.862;19.460;2024-02-28T10:06:00;53.17;;;25.43;;
18738;SDS011;9498;51.862;19.460;2024-02-28T10:08:29;52.07;;;25.90;;
18738;SDS011;9498;51.862;19.460;2024-02-28T10:11:01;54.47;;;27.10;;
18738;SDS011;9498;51.862;19.460;2024-02-28T10:13:30;51.60;;;26.63;;
18738;SDS011;9498;51.862;19.460;2024-02-28T10:15:59;57.83;;;28.13;;
18738;SDS011;9498;51.862;19.460;2024-02-28T10:18:32;56.17;;;27.57;;
18738;SDS011;9498;51.862;19.460;2024-02-28T10:21:00;58.20;;;28.43;;
18738;SDS011;9498;51.862;19.460;2024-02-28T10:23:29;56.63;;;27.48;;
18738;SDS011;9498;51.862;19.460;2024-02-28T10:26:00;59.57;;;31.80;;
18738;SDS011;9498;51.862;19.460;2024-02-28T10:28:29;58.30;;;31.58;;
18738;SDS011;9498;51.862;19.460;2024-02-28T10:30:57;62.47;;;28.90;;
18738;SDS011;9498;51.862;19.460;2024-02-28T10:33:26;58.63;;;27.40;;
18738;SDS011;9498;51.862;19.460;2024-02-28T10:36:01;56.30;;;27.13;;
18738;SDS011;9498;51.862;19.460;2024-02-28T10:38:30;53.50;;;24.93;;
18738;SDS011;9498;51.862;19.460;2024-02-28T10:40:59;62.17;;;27.57;;
18738;SDS011;9498;51.862;19.460;2024-02-28T10:43:29;62.30;;;28.67;;
18738;SDS011;9498;51.862;19.460;2024-02-28T10:46:00;61.70;;;29.47;;
18738;SDS011;9498;51.862;19.460;2024-02-28T10:48:28;58.37;;;28.73;;
18738;SDS011;9498;51.862;19.460;2024-02-28T10:50:58;53.17;;;26.60;;
18738;SDS011;9498;51.862;19.460;2024-02-28T10:53:31;60.90;;;27.70;;
18738;SDS011;9498;51.862;19.460;2024-02-28T10:56:02;56.20;;;27.43;;
18738;SDS011;9498;51.862;19.460;2024-02-28T10:58:33;56.67;;;28.20;;
18738;SDS011;9498;51.862;19.460;2024-02-28T11:01:06;55.73;;;27.23;;
18738;SDS011;9498;51.862;19.460;2024-02-28T11:03:36;58.80;;;32.08;;
18738;SDS011;9498;51.862;19.460;2024-02-28T11:06:15;50.33;;;26.80;;
18738;SDS011;9498;51.862;19.460;2024-02-28T11:08:51;52.43;;;25.60;;
18738;SDS011;9498;51.862;19.460;2024-02-28T11:11:23;49.83;;;25.23;;
18738;SDS011;9498;51.862;19.460;2024-02-28T11:13:51;58.63;;;27.17;;
18738;SDS011;9498;51.862;19.460;2024-02-28T11:16:27;62.53;;;29.73;;
18738;SDS011;9498;51.862;19.460;2024-02-28T11:18:57;59.40;;;27.50;;
18738;SDS011;9498;51.862;19.460;2024-02-28T11:21:26;56.37;;;27.63;;
18738;SDS011;9498;51.862;19.460;2024-02-28T11:24:01;62.37;;;27.43;;
18738;SDS011;9498;51.862;19.460;2024-02-28T11:26:30;56.30;;;27.30;;
18738;SDS011;9498;51.862;19.460;2024-02-28T11:28:58;54.97;;;25.87;;
18738;SDS011;9498;51.862;19.460;2024-02-28T11:31:28;53.33;;;24.60;;
18738;SDS011;9498;51.862;19.460;2024-02-28T11:33:56;57.00;;;27.23;;
18738;SDS011;9498;51.862;19.460;2024-02-28T11:36:25;47.03;;;22.50;;
18738;SDS011;9498;51.862;19.460;2024-02-28T11:38:54;44.77;;;22.27;;
18738;SDS011;9498;51.862;19.460;2024-02-28T11:41:28;48.03;;;22.67;;
18738;SDS011;9498;51.862;19.460;2024-02-28T11:43:57;45.13;;;21.47;;
18738;SDS011;9498;51.862;19.460;2024-02-28T11:46:26;50.27;;;23.73;;
18738;SDS011;9498;51.862;19.460;2024-02-28T11:48:55;44.07;;;20.37;;
18738;SDS011;9498;51.862;19.460;2024-02-28T11:51:23;38.97;;;18.67;;
18738;SDS011;9498;51.862;19.460;2024-02-28T11:53:51;42.90;;;18.77;;
18738;SDS011;9498;51.862;19.460;2024-02-28T11:56:20;40.47;;;17.77;;
18738;SDS011;9498;51.862;19.460;2024-02-28T12:01:58;41.13;;;18.00;;
18738;SDS011;9498;51.862;19.460;2024-02-28T12:04:29;40.13;;;18.90;;
18738;SDS011;9498;51.862;19.460;2024-02-28T12:06:58;49.17;;;23.70;;
18738;SDS011;9498;51.862;19.460;2024-02-28T12:09:26;47.57;;;20.60;;
18738;SDS011;9498;51.862;19.460;2024-02-28T12:11:55;52.10;;;21.80;;
18738;SDS011;9498;51.862;19.460;2024-02-28T12:14:23;50.23;;;20.47;;
18738;SDS011;9498;51.862;19.460;2024-02-28T12:16:53;46.37;;;20.60;;
18738;SDS011;9498;51.862;19.460;2024-02-28T12:19:24;49.53;;;20.23;;
18738;SDS011;9498;51.862;19.460;2024-02-28T12:21:52;53.23;;;23.20;;
18738;SDS011;9498;51.862;19.460;2024-02-28T12:24:21;49.87;;;21.00;;
18738;SDS011;9498;51.862;19.460;2024-02-28T12:26:49;49.03;;;20.70;;
18738;SDS011;9498;51.862;19.460;2024-02-28T12:29:19;55.87;;;22.97;;
18738;SDS011;9498;51.862;19.460;2024-02-28T12:31:50;55.13;;;21.57;;
18738;SDS011;9498;51.862;19.460;2024-02-28T12:34:19;49.37;;;20.73;;
18738;SDS011;9498;51.862;19.460;2024-02-28T12:36:51;48.27;;;19.97;;
18738;SDS011;9498;51.862;19.460;2024-02-28T12:39:23;58.90;;;25.02;;
18738;SDS011;9498;51.862;19.460;2024-02-28T12:41:55;51.93;;;22.07;;
18738;SDS011;9498;51.862;19.460;2024-02-28T12:44:23;52.87;;;20.50;;
18738;SDS011;9498;51.862;19.460;2024-02-28T12:46:53;47.57;;;20.60;;
18738;SDS011;9498;51.862;19.460;2024-02-28T12:49:25;46.80;;;19.93;;
18738;SDS011;9498;51.862;19.460;2024-02-28T12:51:56;42.50;;;18.87;;
18738;SDS011;9498;51.862;19.460;2024-02-28T12:54:25;44.47;;;20.10;;
18738;SDS011;9498;51.862;19.460;2024-02-28T12:56:53;37.90;;;16.40;;
18738;SDS011;9498;51.862;19.460;2024-02-28T12:59:24;38.47;;;15.90;;
18738;SDS011;9498;51.862;19.460;2024-02-28T13:01:55;36.37;;;15.67;;
18738;SDS011;9498;51.862;19.460;2024-02-28T13:04:26;39.33;;;17.20;;
18738;SDS011;9498;51.862;19.460;2024-02-28T13:06:59;37.77;;;15.63;;
18738;SDS011;9498;51.862;19.460;2024-02-28T13:09:28;39.20;;;16.30;;
18738;SDS011;9498;51.862;19.460;2024-02-28T13:11:57;42.15;;;19.90;;
18738;SDS011;9498;51.862;19.460;2024-02-28T13:14:25;37.90;;;17.37;;
18738;SDS011;9498;51.862;19.460;2024-02-28T13:16:54;42.07;;;17.73;;
18738;SDS011;9498;51.862;19.460;2024-02-28T13:22:20;37.87;;;18.07;;
18738;SDS011;9498;51.862;19.460;2024-02-28T13:24:49;37.83;;;16.33;;
18738;SDS011;9498;51.862;19.460;2024-02-28T13:27:18;44.95;;;20.38;;
18738;SDS011;9498;51.862;19.460;2024-02-28T13:29:46;39.83;;;18.67;;
18738;SDS011;9498;51.862;19.460;2024-02-28T13:32:15;42.93;;;19.30;;
18738;SDS011;9498;51.862;19.460;2024-02-28T13:34:43;45.10;;;19.67;;
18738;SDS011;9498;51.862;19.460;2024-02-28T13:37:11;43.33;;;18.83;;
18738;SDS011;9498;51.862;19.460;2024-02-28T13:39:43;41.40;;;18.60;;
18738;SDS011;9498;51.862;19.460;2024-02-28T13:42:12;41.67;;;18.93;;
18738;SDS011;9498;51.862;19.460;2024-02-28T13:44:40;42.23;;;19.53;;
18738;SDS011;9498;51.862;19.460;2024-02-28T13:47:09;44.13;;;20.07;;
18738;SDS011;9498;51.862;19.460;2024-02-28T13:49:38;47.58;;;23.10;;
18738;SDS011;9498;51.862;19.460;2024-02-28T13:52:07;40.73;;;19.90;;
18738;SDS011;9498;51.862;19.460;2024-02-28T13:54:36;43.83;;;18.93;;
18738;SDS011;9498;51.862;19.460;2024-02-28T13:57:07;43.50;;;19.77;;
18738;SDS011;9498;51.862;19.460;2024-02-28T13:59:36;39.43;;;18.43;;
18738;SDS011;9498;51.862;19.460;2024-02-28T14:02:05;39.07;;;18.33;;
18738;SDS011;9498;51.862;19.460;2024-02-28T14:04:34;38.27;;;18.43;;
18738;SDS011;9498;51.862;19.460;2024-02-28T14:07:03;39.27;;;18.53;;
18738;SDS011;9498;51.862;19.460;2024-02-28T14:09:32;39.67;;;18.83;;
18738;SDS011;9498;51.862;19.460;2024-02-28T14:12:00;42.13;;;18.83;;
18738;SDS011;9498;51.862;19.460;2024-02-28T14:14:31;40.73;;;19.07;;
18738;SDS011;9498;51.862;19.460;2024-02-28T14:17:00;40.17;;;18.67;;
18738;SDS011;9498;51.862;19.460;2024-02-28T14:19:29;39.20;;;18.63;;
18738;SDS011;9498;51.862;19.460;2024-02-28T14:21:58;36.20;;;18.83;;
18738;SDS011;9498;51.862;19.460;2024-02-28T14:24:26;42.47;;;20.07;;
18738;SDS011;9498;51.862;19.460;2024-02-28T14:26:55;37.07;;;19.63;;
18738;SDS011;9498;51.862;19.460;2024-02-28T14:29:23;38.27;;;18.90;;
18738;SDS011;9498;51.862;19.460;2024-02-28T14:31:54;37.73;;;19.10;;
18738;SDS011;9498;51.862;19.460;2024-02-28T14:34:23;37.47;;;19.17;;
18738;SDS011;9498;51.862;19.460;2024-02-28T14:36:54;34.73;;;17.83;;
18738;SDS011;9498;51.862;19.460;2024-02-28T14:39:23;35.77;;;17.87;;
18738;SDS011;9498;51.862;19.460;2024-02-28T14:41:51;36.77;;;18.27;;
18738;SDS011;9498;51.862;19.460;2024-02-28T14:44:22;40.23;;;19.90;;
18738;SDS011;9498;51.862;19.460;2024-02-28T14:46:50;40.27;;;19.37;;
18738;SDS011;9498;51.862;19.460;2024-02-28T14:49:21;37.57;;;19.63;;
18738;SDS011;9498;51.862;19.460;2024-02-28T14:51:50;38.87;;;19.87;;
18738;SDS011;9498;51.862;19.460;2024-02-28T14:54:18;43.40;;;21.90;;
18738;SDS011;9498;51.862;19.460;2024-02-28T14:56:48;47.17;;;22.17;;
18738;SDS011;9498;51.862;19.460;2024-02-28T14:59:16;39.97;;;20.20;;
18738;SDS011;9498;51.862;19.460;2024-02-28T15:01:45;36.80;;;18.87;;
18738;SDS011;9498;51.862;19.460;2024-02-28T15:04:13;39.60;;;20.70;;